sensor_id;sensor_type;location;lat;lon;timestamp;pressure;altitude;pressure_sealevel;temperature;humidity
804;BME280;25687;49.976;8.240;2023-08-31T00:01:06;99443.34;;;13.43;100.00
804;BME280;25687;49.976;8.240;2023-08-31T00:03:31;99449.28;;;13.32;100.00
804;BME280;25687;49.976;8.240;2023-08-31T00:05:57;99445.06;;;13.31;100.00
804;BME280;25687;49.976;8.240;2023-08-31T00:08:22;99444.97;;;13.21;100.00
804;BME280;25687;49.976;8.240;2023-08-31T00:10:57;99446.25;;;13.15;100.00
804;BME280;25687;49.976;8.240;2023-08-31T00:13:23;99444.25;;;13.19;100.00
804;BME280;25687;49.976;8.240;2023-08-31T00:15:49;99448.03;;;13.15;100.00
804;BME280;25687;49.976;8.240;2023-08-31T00:18:14;99452.94;;;13.06;100.00
804;BME280;25687;49.976;8.240;2023-08-31T00:20:41;99450.34;;;13.18;100.00
804;BME280;25687;49.976;8.240;2023-08-31T00:23:07;99448.13;;;13.13;100.00
804;BME280;25687;49.976;8.240;2023-08-31T00:25:32;99461.72;;;13.04;100.00
804;BME280;25687;49.976;8.240;2023-08-31T00:27:57;99461.00;;;13.02;100.00
804;BME280;25687;49.976;8.240;2023-08-31T00:30:29;99455.25;;;12.98;100.00
804;BME280;25687;49.976;8.240;2023-08-31T00:32:55;99462.50;;;12.82;100.00
804;BME280;25687;49.976;8.240;2023-08-31T00:35:20;99453.72;;;12.84;100.00
804;BME280;25687;49.976;8.240;2023-08-31T00:37:45;99463.09;;;12.74;100.00
804;BME280;25687;49.976;8.240;2023-08-31T00:40:11;99465.09;;;12.82;100.00
804;BME280;25687;49.976;8.240;2023-08-31T00:42:39;99467.69;;;12.57;100.00
804;BME280;25687;49.976;8.240;2023-08-31T00:45:04;99467.53;;;12.48;100.00
804;BME280;25687;49.976;8.240;2023-08-31T00:47:31;99469.47;;;12.57;100.00
804;BME280;25687;49.976;8.240;2023-08-31T00:49:56;99466.16;;;12.55;100.00
804;BME280;25687;49.976;8.240;2023-08-31T00:52:22;99475.63;;;12.43;100.00
804;BME280;25687;49.976;8.240;2023-08-31T00:54:51;99464.72;;;12.39;100.00
804;BME280;25687;49.976;8.240;2023-08-31T00:57:16;99470.97;;;12.48;100.00
804;BME280;25687;49.976;8.240;2023-08-31T00:59:41;99469.00;;;12.52;100.00
804;BME280;25687;49.976;8.240;2023-08-31T01:02:20;99463.22;;;12.48;100.00
804;BME280;25687;49.976;8.240;2023-08-31T01:07:37;99466.53;;;12.26;100.00
804;BME280;25687;49.976;8.240;2023-08-31T01:10:29;99471.44;;;12.29;100.00
804;BME280;25687;49.976;8.240;2023-08-31T01:13:03;99472.56;;;12.14;100.00
804;BME280;25687;49.976;8.240;2023-08-31T01:15:39;99470.09;;;12.12;100.00
804;BME280;25687;49.976;8.240;2023-08-31T01:18:09;99474.41;;;12.11;100.00
804;BME280;25687;49.976;8.240;2023-08-31T01:20:42;99469.97;;;12.14;100.00
804;BME280;25687;49.976;8.240;2023-08-31T01:23:13;99471.75;;;12.13;100.00
804;BME280;25687;49.976;8.240;2023-08-31T01:25:39;99483.00;;;12.12;100.00
804;BME280;25687;49.976;8.240;2023-08-31T01:28:07;99484.84;;;12.10;100.00
804;BME280;25687;49.976;8.240;2023-08-31T01:30:33;99490.31;;;12.05;100.00
804;BME280;25687;49.976;8.240;2023-08-31T01:32:59;99483.34;;;11.94;100.00
804;BME280;25687;49.976;8.240;2023-08-31T01:35:25;99487.47;;;11.84;100.00
804;BME280;25687;49.976;8.240;2023-08-31T01:37:59;99483.53;;;11.91;100.00
804;BME280;25687;49.976;8.240;2023-08-31T01:40:32;99486.66;;;11.84;100.00
804;BME280;25687;49.976;8.240;2023-08-31T01:43:03;99480.66;;;11.83;100.00
804;BME280;25687;49.976;8.240;2023-08-31T01:45:30;99479.84;;;11.83;100.00
804;BME280;25687;49.976;8.240;2023-08-31T01:47:56;99482.22;;;11.86;100.00
804;BME280;25687;49.976;8.240;2023-08-31T01:50:22;99477.06;;;11.86;100.00
804;BME280;25687;49.976;8.240;2023-08-31T01:52:48;99474.88;;;11.92;100.00
804;BME280;25687;49.976;8.240;2023-08-31T01:55:13;99471.25;;;11.95;100.00
804;BME280;25687;49.976;8.240;2023-08-31T01:57:41;99471.66;;;12.02;100.00
804;BME280;25687;49.976;8.240;2023-08-31T02:00:08;99484.34;;;12.05;100.00
804;BME280;25687;49.976;8.240;2023-08-31T02:02:34;99492.94;;;12.17;100.00
804;BME280;25687;49.976;8.240;2023-08-31T02:05:01;99495.09;;;12.23;100.00
804;BME280;25687;49.976;8.240;2023-08-31T02:07:27;99490.91;;;12.22;100.00
804;BME280;25687;49.976;8.240;2023-08-31T02:09:53;99492.81;;;12.31;100.00
804;BME280;25687;49.976;8.240;2023-08-31T02:12:18;99493.28;;;12.36;100.00
804;BME280;25687;49.976;8.240;2023-08-31T02:14:43;99495.78;;;12.38;100.00
804;BME280;25687;49.976;8.240;2023-08-31T02:17:08;99491.56;;;12.37;100.00
804;BME280;25687;49.976;8.240;2023-08-31T02:19:34;99500.16;;;12.24;100.00
804;BME280;25687;49.976;8.240;2023-08-31T02:21:59;99508.94;;;12.22;100.00
804;BME280;25687;49.976;8.240;2023-08-31T02:24:24;99505.41;;;12.23;100.00
804;BME280;25687;49.976;8.240;2023-08-31T02:26:50;99500.88;;;12.26;100.00
804;BME280;25687;49.976;8.240;2023-08-31T02:29:15;99508.72;;;12.25;100.00
804;BME280;25687;49.976;8.240;2023-08-31T02:31:40;99510.25;;;12.27;100.00
804;BME280;25687;49.976;8.240;2023-08-31T02:34:07;99515.69;;;12.36;100.00
804;BME280;25687;49.976;8.240;2023-08-31T02:36:32;99509.00;;;12.33;100.00
804;BME280;25687;49.976;8.240;2023-08-31T02:38:57;99504.41;;;12.25;100.00
804;BME280;25687;49.976;8.240;2023-08-31T02:41:22;99506.50;;;12.07;100.00
804;BME280;25687;49.976;8.240;2023-08-31T02:43:51;99508.03;;;12.10;100.00
804;BME280;25687;49.976;8.240;2023-08-31T02:46:17;99510.63;;;12.10;100.00
804;BME280;25687;49.976;8.240;2023-08-31T02:48:43;99519.41;;;12.07;100.00
804;BME280;25687;49.976;8.240;2023-08-31T02:51:08;99512.38;;;12.09;100.00
804;BME280;25687;49.976;8.240;2023-08-31T02:53:34;99510.13;;;12.05;100.00
804;BME280;25687;49.976;8.240;2023-08-31T02:55:59;99509.63;;;12.00;100.00
804;BME280;25687;49.976;8.240;2023-08-31T02:58:24;99510.94;;;11.92;100.00
804;BME280;25687;49.976;8.240;2023-08-31T03:00:50;99509.84;;;11.84;100.00
804;BME280;25687;49.976;8.240;2023-08-31T03:03:16;99515.09;;;11.82;100.00
804;BME280;25687;49.976;8.240;2023-08-31T03:05:41;99508.91;;;11.85;100.00
804;BME280;25687;49.976;8.240;2023-08-31T03:08:07;99503.88;;;11.70;100.00
804;BME280;25687;49.976;8.240;2023-08-31T03:10:32;99508.41;;;11.67;100.00
804;BME280;25687;49.976;8.240;2023-08-31T03:12:57;99506.88;;;11.64;100.00
804;BME280;25687;49.976;8.240;2023-08-31T03:15:23;99516.44;;;11.62;100.00
804;BME280;25687;49.976;8.240;2023-08-31T03:17:48;99515.34;;;11.66;100.00
804;BME280;25687;49.976;8.240;2023-08-31T03:20:13;99518.94;;;11.63;100.00
804;BME280;25687;49.976;8.240;2023-08-31T03:22:39;99517.50;;;11.59;100.00
804;BME280;25687;49.976;8.240;2023-08-31T03:25:04;99517.81;;;11.68;100.00
804;BME280;25687;49.976;8.240;2023-08-31T03:27:29;99518.72;;;11.67;100.00
804;BME280;25687;49.976;8.240;2023-08-31T03:29:55;99531.72;;;11.65;100.00
804;BME280;25687;49.976;8.240;2023-08-31T03:32:20;99526.44;;;11.67;100.00
804;BME280;25687;49.976;8.240;2023-08-31T03:34:45;99522.84;;;11.69;100.00
804;BME280;25687;49.976;8.240;2023-08-31T03:37:11;99526.97;;;11.72;100.00
804;BME280;25687;49.976;8.240;2023-08-31T03:39:36;99529.75;;;11.69;100.00
804;BME280;25687;49.976;8.240;2023-08-31T03:42:02;99533.38;;;11.66;100.00
804;BME280;25687;49.976;8.240;2023-08-31T03:44:27;99526.06;;;11.60;100.00
804;BME280;25687;49.976;8.240;2023-08-31T03:46:53;99536.34;;;11.47;100.00
804;BME280;25687;49.976;8.240;2023-08-31T03:49:18;99532.03;;;11.35;100.00
804;BME280;25687;49.976;8.240;2023-08-31T03:51:43;99536.03;;;11.26;100.00
804;BME280;25687;49.976;8.240;2023-08-31T03:54:08;99538.31;;;11.18;100.00
804;BME280;25687;49.976;8.240;2023-08-31T03:56:34;99536.03;;;11.26;100.00
804;BME280;25687;49.976;8.240;2023-08-31T03:59:02;99539.53;;;11.25;100.00
804;BME280;25687;49.976;8.240;2023-08-31T04:01:28;99538.19;;;11.32;100.00
804;BME280;25687;49.976;8.240;2023-08-31T04:03:54;99542.53;;;11.32;100.00
804;BME280;25687;49.976;8.240;2023-08-31T04:06:19;99543.13;;;11.22;100.00
804;BME280;25687;49.976;8.240;2023-08-31T04:08:44;99553.03;;;11.28;100.00
804;BME280;25687;49.976;8.240;2023-08-31T04:11:09;99556.63;;;11.26;100.00
804;BME280;25687;49.976;8.240;2023-08-31T04:13:35;99563.03;;;11.20;100.00
804;BME280;25687;49.976;8.240;2023-08-31T04:16:00;99569.38;;;11.14;100.00
804;BME280;25687;49.976;8.240;2023-08-31T04:18:25;99577.00;;;11.16;100.00
804;BME280;25687;49.976;8.240;2023-08-31T04:20:52;99576.47;;;11.11;100.00
804;BME280;25687;49.976;8.240;2023-08-31T04:23:18;99577.00;;;11.03;100.00
804;BME280;25687;49.976;8.240;2023-08-31T04:25:45;99577.72;;;11.05;100.00
804;BME280;25687;49.976;8.240;2023-08-31T04:28:10;99587.00;;;11.08;100.00
804;BME280;25687;49.976;8.240;2023-08-31T04:30:35;99584.09;;;11.00;100.00
804;BME280;25687;49.976;8.240;2023-08-31T04:33:01;99580.94;;;10.81;100.00
804;BME280;25687;49.976;8.240;2023-08-31T04:35:26;99584.38;;;10.95;100.00
804;BME280;25687;49.976;8.240;2023-08-31T04:37:52;99581.91;;;10.93;100.00
804;BME280;25687;49.976;8.240;2023-08-31T04:40:17;99586.13;;;10.94;100.00
804;BME280;25687;49.976;8.240;2023-08-31T04:42:42;99580.13;;;10.94;100.00
804;BME280;25687;49.976;8.240;2023-08-31T04:45:08;99577.56;;;10.94;100.00
804;BME280;25687;49.976;8.240;2023-08-31T04:47:34;99585.69;;;10.88;100.00
804;BME280;25687;49.976;8.240;2023-08-31T04:49:59;99595.59;;;10.94;100.00
804;BME280;25687;49.976;8.240;2023-08-31T04:52:24;99592.31;;;10.92;100.00
804;BME280;25687;49.976;8.240;2023-08-31T04:54:50;99591.81;;;11.00;100.00
804;BME280;25687;49.976;8.240;2023-08-31T04:57:15;99588.84;;;11.06;100.00
804;BME280;25687;49.976;8.240;2023-08-31T04:59:40;99590.50;;;11.07;100.00
804;BME280;25687;49.976;8.240;2023-08-31T05:02:06;99601.59;;;11.07;100.00
804;BME280;25687;49.976;8.240;2023-08-31T05:04:31;99604.28;;;11.19;100.00
804;BME280;25687;49.976;8.240;2023-08-31T05:06:56;99607.31;;;11.25;100.00
804;BME280;25687;49.976;8.240;2023-08-31T05:09:26;99615.16;;;11.24;100.00
804;BME280;25687;49.976;8.240;2023-08-31T05:11:52;99613.38;;;11.24;100.00
804;BME280;25687;49.976;8.240;2023-08-31T05:14:17;99620.59;;;11.32;100.00
804;BME280;25687;49.976;8.240;2023-08-31T05:16:42;99625.06;;;11.43;100.00
804;BME280;25687;49.976;8.240;2023-08-31T05:19:07;99637.31;;;11.52;100.00
804;BME280;25687;49.976;8.240;2023-08-31T05:21:33;99640.50;;;11.56;100.00
804;BME280;25687;49.976;8.240;2023-08-31T05:23:58;99639.06;;;11.65;100.00
804;BME280;25687;49.976;8.240;2023-08-31T05:26:23;99640.72;;;11.53;100.00
804;BME280;25687;49.976;8.240;2023-08-31T05:28:48;99641.25;;;11.71;100.00
804;BME280;25687;49.976;8.240;2023-08-31T05:31:15;99648.91;;;11.72;100.00
804;BME280;25687;49.976;8.240;2023-08-31T05:33:40;99649.28;;;11.92;100.00
804;BME280;25687;49.976;8.240;2023-08-31T05:36:05;99646.25;;;12.00;100.00
804;BME280;25687;49.976;8.240;2023-08-31T05:38:31;99647.03;;;12.26;100.00
804;BME280;25687;49.976;8.240;2023-08-31T05:41:09;99643.75;;;12.11;100.00
804;BME280;25687;49.976;8.240;2023-08-31T05:43:35;99644.44;;;12.39;100.00
804;BME280;25687;49.976;8.240;2023-08-31T05:46:01;99646.06;;;12.53;100.00
804;BME280;25687;49.976;8.240;2023-08-31T05:48:26;99649.94;;;12.58;100.00
804;BME280;25687;49.976;8.240;2023-08-31T05:50:51;99645.91;;;12.67;100.00
804;BME280;25687;49.976;8.240;2023-08-31T05:53:17;99655.16;;;12.83;100.00
804;BME280;25687;49.976;8.240;2023-08-31T05:55:42;99649.59;;;13.00;100.00
804;BME280;25687;49.976;8.240;2023-08-31T05:58:07;99652.72;;;13.17;100.00
804;BME280;25687;49.976;8.240;2023-08-31T06:00:32;99652.94;;;13.14;100.00
804;BME280;25687;49.976;8.240;2023-08-31T06:02:58;99651.38;;;13.35;100.00
804;BME280;25687;49.976;8.240;2023-08-31T06:05:23;99654.63;;;13.50;100.00
804;BME280;25687;49.976;8.240;2023-08-31T06:07:48;99650.75;;;13.56;100.00
804;BME280;25687;49.976;8.240;2023-08-31T06:10:14;99655.34;;;13.52;100.00
804;BME280;25687;49.976;8.240;2023-08-31T06:12:40;99645.03;;;13.75;100.00
804;BME280;25687;49.976;8.240;2023-08-31T06:15:05;99655.03;;;13.80;100.00
804;BME280;25687;49.976;8.240;2023-08-31T06:17:31;99653.06;;;13.95;100.00
804;BME280;25687;49.976;8.240;2023-08-31T06:19:56;99653.06;;;13.95;100.00
804;BME280;25687;49.976;8.240;2023-08-31T06:22:22;99648.00;;;14.04;100.00
804;BME280;25687;49.976;8.240;2023-08-31T06:24:50;99651.66;;;14.25;100.00
804;BME280;25687;49.976;8.240;2023-08-31T06:27:17;99654.34;;;14.34;100.00
804;BME280;25687;49.976;8.240;2023-08-31T06:29:42;99650.22;;;14.43;100.00
804;BME280;25687;49.976;8.240;2023-08-31T06:32:08;99658.59;;;14.35;100.00
804;BME280;25687;49.976;8.240;2023-08-31T06:34:33;99659.63;;;14.44;100.00
804;BME280;25687;49.976;8.240;2023-08-31T06:36:58;99664.56;;;14.59;100.00
804;BME280;25687;49.976;8.240;2023-08-31T06:39:24;99667.03;;;14.49;100.00
804;BME280;25687;49.976;8.240;2023-08-31T06:41:50;99675.19;;;14.22;100.00
804;BME280;25687;49.976;8.240;2023-08-31T06:44:15;99667.72;;;14.51;100.00
804;BME280;25687;49.976;8.240;2023-08-31T06:46:42;99674.41;;;14.88;100.00
804;BME280;25687;49.976;8.240;2023-08-31T06:49:07;99673.22;;;15.45;100.00
804;BME280;25687;49.976;8.240;2023-08-31T06:51:33;99673.78;;;15.70;100.00
804;BME280;25687;49.976;8.240;2023-08-31T06:53:58;99680.34;;;15.86;100.00
804;BME280;25687;49.976;8.240;2023-08-31T06:56:33;99677.78;;;16.17;100.00
804;BME280;25687;49.976;8.240;2023-08-31T06:58:59;99687.34;;;16.26;100.00
804;BME280;25687;49.976;8.240;2023-08-31T07:01:24;99678.22;;;16.72;100.00
804;BME280;25687;49.976;8.240;2023-08-31T07:03:50;99685.19;;;16.82;100.00
804;BME280;25687;49.976;8.240;2023-08-31T07:06:15;99693.38;;;16.67;100.00
804;BME280;25687;49.976;8.240;2023-08-31T07:08:40;99698.91;;;16.43;100.00
804;BME280;25687;49.976;8.240;2023-08-31T07:11:07;99709.59;;;16.50;100.00
804;BME280;25687;49.976;8.240;2023-08-31T07:13:32;99710.97;;;16.23;100.00
804;BME280;25687;49.976;8.240;2023-08-31T07:15:57;99707.69;;;16.61;100.00
804;BME280;25687;49.976;8.240;2023-08-31T07:18:22;99715.88;;;16.57;100.00
804;BME280;25687;49.976;8.240;2023-08-31T07:20:48;99706.72;;;17.33;100.00
804;BME280;25687;49.976;8.240;2023-08-31T07:23:13;99707.09;;;17.97;100.00
804;BME280;25687;49.976;8.240;2023-08-31T07:25:39;99699.50;;;18.51;100.00
804;BME280;25687;49.976;8.240;2023-08-31T07:28:04;99699.06;;;19.38;100.00
804;BME280;25687;49.976;8.240;2023-08-31T07:30:30;99705.91;;;20.36;100.00
804;BME280;25687;49.976;8.240;2023-08-31T07:32:55;99709.88;;;20.56;100.00
804;BME280;25687;49.976;8.240;2023-08-31T07:35:20;99705.00;;;21.62;99.40
804;BME280;25687;49.976;8.240;2023-08-31T07:37:46;99705.50;;;23.25;88.29
804;BME280;25687;49.976;8.240;2023-08-31T07:40:11;99715.59;;;24.34;77.34
804;BME280;25687;49.976;8.240;2023-08-31T07:42:37;99708.56;;;25.93;67.49
804;BME280;25687;49.976;8.240;2023-08-31T07:45:03;99721.50;;;26.71;58.56
804;BME280;25687;49.976;8.240;2023-08-31T07:47:30;99723.16;;;25.89;58.37
804;BME280;25687;49.976;8.240;2023-08-31T07:49:55;99721.78;;;26.90;51.27
804;BME280;25687;49.976;8.240;2023-08-31T07:52:21;99731.66;;;25.91;56.49
804;BME280;25687;49.976;8.240;2023-08-31T07:54:46;99734.44;;;24.23;70.33
804;BME280;25687;49.976;8.240;2023-08-31T07:57:11;99738.16;;;24.28;74.01
804;BME280;25687;49.976;8.240;2023-08-31T07:59:36;99742.06;;;22.95;80.13
804;BME280;25687;49.976;8.240;2023-08-31T08:02:04;99744.09;;;23.08;78.29
804;BME280;25687;49.976;8.240;2023-08-31T08:04:30;99739.13;;;22.58;85.07
804;BME280;25687;49.976;8.240;2023-08-31T08:06:55;99744.16;;;22.68;84.85
804;BME280;25687;49.976;8.240;2023-08-31T08:09:20;99741.34;;;22.21;87.58
804;BME280;25687;49.976;8.240;2023-08-31T08:11:45;99750.31;;;21.71;94.25
804;BME280;25687;49.976;8.240;2023-08-31T08:14:11;99748.16;;;21.58;96.20
804;BME280;25687;49.976;8.240;2023-08-31T08:16:36;99753.28;;;22.32;93.73
804;BME280;25687;49.976;8.240;2023-08-31T08:19:02;99757.41;;;22.27;84.84
804;BME280;25687;49.976;8.240;2023-08-31T08:21:27;99769.50;;;20.95;93.42
804;BME280;25687;49.976;8.240;2023-08-31T08:23:52;99770.19;;;20.02;100.00
804;BME280;25687;49.976;8.240;2023-08-31T08:26:18;99754.09;;;19.71;100.00
804;BME280;25687;49.976;8.240;2023-08-31T08:28:43;99770.34;;;19.64;100.00
804;BME280;25687;49.976;8.240;2023-08-31T08:31:08;99764.72;;;19.33;100.00
804;BME280;25687;49.976;8.240;2023-08-31T08:33:33;99766.56;;;19.23;100.00
804;BME280;25687;49.976;8.240;2023-08-31T08:35:59;99762.06;;;18.97;100.00
804;BME280;25687;49.976;8.240;2023-08-31T08:38:25;99759.38;;;18.79;100.00
804;BME280;25687;49.976;8.240;2023-08-31T08:40:50;99756.72;;;18.70;100.00
804;BME280;25687;49.976;8.240;2023-08-31T08:43:25;99768.59;;;18.45;100.00
804;BME280;25687;49.976;8.240;2023-08-31T08:45:53;99773.06;;;18.53;100.00
804;BME280;25687;49.976;8.240;2023-08-31T08:48:20;99772.94;;;18.82;100.00
804;BME280;25687;49.976;8.240;2023-08-31T08:50:46;99771.19;;;18.45;100.00
804;BME280;25687;49.976;8.240;2023-08-31T08:53:11;99771.72;;;18.11;100.00
804;BME280;25687;49.976;8.240;2023-08-31T08:55:38;99779.25;;;17.95;100.00
804;BME280;25687;49.976;8.240;2023-08-31T08:58:05;99778.19;;;17.78;100.00
804;BME280;25687;49.976;8.240;2023-08-31T09:00:31;99784.88;;;17.90;100.00
804;BME280;25687;49.976;8.240;2023-08-31T09:02:58;99779.25;;;17.95;100.00
804;BME280;25687;49.976;8.240;2023-08-31T09:05:23;99776.59;;;18.24;100.00
804;BME280;25687;49.976;8.240;2023-08-31T09:08:16;99775.41;;;17.89;100.00
804;BME280;25687;49.976;8.240;2023-08-31T09:10:42;99776.66;;;18.04;100.00
804;BME280;25687;49.976;8.240;2023-08-31T09:13:13;99779.75;;;18.65;100.00
804;BME280;25687;49.976;8.240;2023-08-31T09:15:40;99774.75;;;19.46;100.00
804;BME280;25687;49.976;8.240;2023-08-31T09:18:07;99775.59;;;19.46;100.00
804;BME280;25687;49.976;8.240;2023-08-31T09:20:43;99770.09;;;20.12;100.00
804;BME280;25687;49.976;8.240;2023-08-31T09:23:12;99775.53;;;20.96;98.31
804;BME280;25687;49.976;8.240;2023-08-31T09:25:44;99760.53;;;23.01;87.74
804;BME280;25687;49.976;8.240;2023-08-31T09:28:12;99765.59;;;24.56;72.21
804;BME280;25687;49.976;8.240;2023-08-31T09:30:37;99768.94;;;24.49;67.69
804;BME280;25687;49.976;8.240;2023-08-31T09:33:09;99757.72;;;23.96;75.04
804;BME280;25687;49.976;8.240;2023-08-31T09:35:49;99758.88;;;25.05;65.57
804;BME280;25687;49.976;8.240;2023-08-31T09:38:16;99757.19;;;26.19;56.90
804;BME280;25687;49.976;8.240;2023-08-31T09:40:41;99761.84;;;27.34;48.79
804;BME280;25687;49.976;8.240;2023-08-31T09:43:07;99773.19;;;25.60;53.83
804;BME280;25687;49.976;8.240;2023-08-31T09:45:33;99780.19;;;25.32;57.34
804;BME280;25687;49.976;8.240;2023-08-31T09:48:01;99761.38;;;26.97;48.98
804;BME280;25687;49.976;8.240;2023-08-31T09:50:31;99762.56;;;26.81;47.29
804;BME280;25687;49.976;8.240;2023-08-31T09:53:00;99765.13;;;26.25;49.48
804;BME280;25687;49.976;8.240;2023-08-31T09:55:28;99765.66;;;26.07;50.88
804;BME280;25687;49.976;8.240;2023-08-31T09:57:56;99774.28;;;25.44;49.59
804;BME280;25687;49.976;8.240;2023-08-31T10:00:23;99770.84;;;23.96;63.63
804;BME280;25687;49.976;8.240;2023-08-31T10:02:49;99772.44;;;22.81;72.13
804;BME280;25687;49.976;8.240;2023-08-31T10:05:15;99768.09;;;22.65;71.84
804;BME280;25687;49.976;8.240;2023-08-31T10:07:42;99756.16;;;23.48;74.22
804;BME280;25687;49.976;8.240;2023-08-31T10:10:08;99756.19;;;25.20;54.54
804;BME280;25687;49.976;8.240;2023-08-31T10:12:35;99759.25;;;27.67;45.56
804;BME280;25687;49.976;8.240;2023-08-31T10:15:01;99765.22;;;29.19;40.66
804;BME280;25687;49.976;8.240;2023-08-31T10:17:27;99763.19;;;30.16;37.32
804;BME280;25687;49.976;8.240;2023-08-31T10:19:53;99770.88;;;29.55;37.34
804;BME280;25687;49.976;8.240;2023-08-31T10:22:19;99771.81;;;27.79;40.37
804;BME280;25687;49.976;8.240;2023-08-31T10:24:57;99767.63;;;26.82;43.26
804;BME280;25687;49.976;8.240;2023-08-31T10:27:24;99765.22;;;26.46;46.23
804;BME280;25687;49.976;8.240;2023-08-31T10:29:49;99763.78;;;26.36;46.51
804;BME280;25687;49.976;8.240;2023-08-31T10:32:18;99758.41;;;26.16;46.50
804;BME280;25687;49.976;8.240;2023-08-31T10:34:44;99763.88;;;25.58;47.65
804;BME280;25687;49.976;8.240;2023-08-31T10:37:29;99767.84;;;24.89;52.79
804;BME280;25687;49.976;8.240;2023-08-31T10:40:06;99765.53;;;24.34;54.58
804;BME280;25687;49.976;8.240;2023-08-31T10:42:32;99769.16;;;23.80;58.69
804;BME280;25687;49.976;8.240;2023-08-31T10:45:05;99758.56;;;22.72;67.01
804;BME280;25687;49.976;8.240;2023-08-31T10:47:41;99763.00;;;22.71;67.92
804;BME280;25687;49.976;8.240;2023-08-31T10:50:21;99763.94;;;22.22;65.84
804;BME280;25687;49.976;8.240;2023-08-31T10:52:46;99757.78;;;21.99;68.85
804;BME280;25687;49.976;8.240;2023-08-31T10:55:12;99757.81;;;21.74;76.07
804;BME280;25687;49.976;8.240;2023-08-31T10:57:37;99752.09;;;21.87;72.94
804;BME280;25687;49.976;8.240;2023-08-31T11:00:05;99744.66;;;22.15;73.10
804;BME280;25687;49.976;8.240;2023-08-31T11:02:43;99748.78;;;22.01;70.07
804;BME280;25687;49.976;8.240;2023-08-31T11:07:36;99749.75;;;22.00;76.56
804;BME280;25687;49.976;8.240;2023-08-31T11:10:15;99737.81;;;22.06;71.27
804;BME280;25687;49.976;8.240;2023-08-31T11:12:43;99728.00;;;22.56;67.53
804;BME280;25687;49.976;8.240;2023-08-31T11:15:11;99736.13;;;22.69;73.76
804;BME280;25687;49.976;8.240;2023-08-31T11:17:37;99743.16;;;23.00;66.06
804;BME280;25687;49.976;8.240;2023-08-31T11:20:05;99747.28;;;22.71;56.99
804;BME280;25687;49.976;8.240;2023-08-31T11:22:31;99746.22;;;22.81;65.83
804;BME280;25687;49.976;8.240;2023-08-31T11:24:57;99740.59;;;23.15;59.62
804;BME280;25687;49.976;8.240;2023-08-31T11:27:22;99741.16;;;23.34;60.79
804;BME280;25687;49.976;8.240;2023-08-31T11:29:47;99742.22;;;23.25;54.70
804;BME280;25687;49.976;8.240;2023-08-31T11:32:13;99747.28;;;22.71;53.04
804;BME280;25687;49.976;8.240;2023-08-31T11:34:43;99742.28;;;22.85;53.07
804;BME280;25687;49.976;8.240;2023-08-31T11:37:09;99742.94;;;22.47;53.58
804;BME280;25687;49.976;8.240;2023-08-31T11:39:35;99740.59;;;22.04;57.36
804;BME280;25687;49.976;8.240;2023-08-31T11:42:00;99731.94;;;21.87;55.86
804;BME280;25687;49.976;8.240;2023-08-31T11:44:26;99740.28;;;21.41;53.93
804;BME280;25687;49.976;8.240;2023-08-31T11:46:51;99740.78;;;21.45;56.42
804;BME280;25687;49.976;8.240;2023-08-31T11:49:18;99738.66;;;21.40;55.07
804;BME280;25687;49.976;8.240;2023-08-31T11:51:44;99737.00;;;21.23;58.10
804;BME280;25687;49.976;8.240;2023-08-31T11:54:10;99737.53;;;21.35;58.33
804;BME280;25687;49.976;8.240;2023-08-31T11:59:11;99736.38;;;21.45;57.21
804;BME280;25687;49.976;8.240;2023-08-31T12:01:40;99736.34;;;21.12;56.77
804;BME280;25687;49.976;8.240;2023-08-31T12:04:16;99737.00;;;21.06;59.87
804;BME280;25687;49.976;8.240;2023-08-31T12:06:49;99736.03;;;21.07;57.70
804;BME280;25687;49.976;8.240;2023-08-31T12:09:15;99734.88;;;21.02;61.66
804;BME280;25687;49.976;8.240;2023-08-31T12:11:41;99745.34;;;21.18;59.04
804;BME280;25687;49.976;8.240;2023-08-31T12:14:22;99741.28;;;21.24;55.24
804;BME280;25687;49.976;8.240;2023-08-31T12:16:49;99732.13;;;21.53;57.04
804;BME280;25687;49.976;8.240;2023-08-31T12:19:14;99736.72;;;21.42;61.42
804;BME280;25687;49.976;8.240;2023-08-31T12:21:42;99738.31;;;21.27;56.02
804;BME280;25687;49.976;8.240;2023-08-31T12:24:08;99743.22;;;21.22;54.21
804;BME280;25687;49.976;8.240;2023-08-31T12:26:34;99741.63;;;21.37;56.54
804;BME280;25687;49.976;8.240;2023-08-31T12:29:00;99749.44;;;21.45;53.97
804;BME280;25687;49.976;8.240;2023-08-31T12:31:26;99743.09;;;21.56;54.21
804;BME280;25687;49.976;8.240;2023-08-31T12:33:51;99742.28;;;21.64;52.66
804;BME280;25687;49.976;8.240;2023-08-31T12:36:17;99736.91;;;21.57;53.54
804;BME280;25687;49.976;8.240;2023-08-31T12:38:42;99735.91;;;21.58;51.88
804;BME280;25687;49.976;8.240;2023-08-31T12:41:07;99732.13;;;21.53;55.11
804;BME280;25687;49.976;8.240;2023-08-31T12:43:34;99737.38;;;21.69;52.46
804;BME280;25687;49.976;8.240;2023-08-31T12:45:59;99736.69;;;21.92;52.16
804;BME280;25687;49.976;8.240;2023-08-31T12:48:25;99727.69;;;21.86;52.17
804;BME280;25687;49.976;8.240;2023-08-31T12:50:51;99741.72;;;22.10;55.39
804;BME280;25687;49.976;8.240;2023-08-31T12:53:18;99736.47;;;22.10;52.49
804;BME280;25687;49.976;8.240;2023-08-31T12:55:43;99742.91;;;21.99;49.98
804;BME280;25687;49.976;8.240;2023-08-31T12:58:09;99741.91;;;22.00;51.65
804;BME280;25687;49.976;8.240;2023-08-31T13:00:34;99741.28;;;21.98;50.12
804;BME280;25687;49.976;8.240;2023-08-31T13:02:59;99738.47;;;22.08;47.78
804;BME280;25687;49.976;8.240;2023-08-31T13:05:26;99738.41;;;22.33;49.02
804;BME280;25687;49.976;8.240;2023-08-31T13:07:53;99743.63;;;22.41;49.50
804;BME280;25687;49.976;8.240;2023-08-31T13:10:19;99737.56;;;22.32;51.96
804;BME280;25687;49.976;8.240;2023-08-31T13:12:44;99736.25;;;22.36;51.50
804;BME280;25687;49.976;8.240;2023-08-31T13:15:09;99729.41;;;22.27;51.26
804;BME280;25687;49.976;8.240;2023-08-31T13:17:35;99726.72;;;21.87;46.16
804;BME280;25687;49.976;8.240;2023-08-31T13:20:00;99730.81;;;21.57;48.41